sensor_id;sensor_type;location;lat;lon;timestamp;P1;durP1;ratioP1;P2;durP2;ratioP2
15526;SDS011;7865;50.918;4.510;2022-12-10T00:02:28;32.20;;;13.17;;
15526;SDS011;7865;50.918;4.510;2022-12-10T00:07:31;34.80;;;13.57;;
15526;SDS011;7865;50.918;4.510;2022-12-10T00:12:33;36.37;;;15.10;;
15526;SDS011;7865;50.918;4.510;2022-12-10T00:17:35;41.40;;;15.40;;
15526;SDS011;7865;50.918;4.510;2022-12-10T00:22:37;43.37;;;15.70;;
15526;SDS011;7865;50.918;4.510;2022-12-10T00:27:38;38.60;;;15.77;;
15526;SDS011;7865;50.918;4.510;2022-12-10T00:32:40;44.80;;;16.80;;
15526;SDS011;7865;50.918;4.510;2022-12-10T00:37:42;42.67;;;16.47;;
15526;SDS011;7865;50.918;4.510;2022-12-10T00:42:44;43.07;;;15.17;;
15526;SDS011;7865;50.918;4.510;2022-12-10T00:47:46;44.80;;;16.07;;
15526;SDS011;7865;50.918;4.510;2022-12-10T00:52:48;46.73;;;17.37;;
15526;SDS011;7865;50.918;4.510;2022-12-10T00:57:50;44.23;;;16.70;;
15526;SDS011;7865;50.918;4.510;2022-12-10T01:02:53;44.53;;;16.97;;
15526;SDS011;7865;50.918;4.510;2022-12-10T01:07:55;46.07;;;16.23;;
15526;SDS011;7865;50.918;4.510;2022-12-10T01:12:57;52.67;;;17.60;;
15526;SDS011;7865;50.918;4.510;2022-12-10T01:17:58;50.30;;;17.37;;
15526;SDS011;7865;50.918;4.510;2022-12-10T01:23:00;42.73;;;17.47;;
15526;SDS011;7865;50.918;4.510;2022-12-10T01:28:02;47.77;;;18.73;;
15526;SDS011;7865;50.918;4.510;2022-12-10T01:33:04;44.93;;;16.60;;
15526;SDS011;7865;50.918;4.510;2022-12-10T01:38:08;55.87;;;15.43;;
15526;SDS011;7865;50.918;4.510;2022-12-10T01:43:12;50.13;;;16.87;;
15526;SDS011;7865;50.918;4.510;2022-12-10T01:48:15;40.37;;;16.67;;
15526;SDS011;7865;50.918;4.510;2022-12-10T01:53:18;50.23;;;18.80;;
15526;SDS011;7865;50.918;4.510;2022-12-10T01:58:20;43.83;;;17.07;;
15526;SDS011;7865;50.918;4.510;2022-12-10T02:03:26;54.17;;;19.03;;
15526;SDS011;7865;50.918;4.510;2022-12-10T02:08:46;46.47;;;15.97;;
15526;SDS011;7865;50.918;4.510;2022-12-10T02:14:03;52.93;;;14.97;;
15526;SDS011;7865;50.918;4.510;2022-12-10T02:24:30;46.53;;;16.33;;
15526;SDS011;7865;50.918;4.510;2022-12-10T02:29:35;45.40;;;16.63;;
15526;SDS011;7865;50.918;4.510;2022-12-10T02:34:43;51.23;;;17.27;;
15526;SDS011;7865;50.918;4.510;2022-12-10T02:39:52;46.03;;;15.63;;
15526;SDS011;7865;50.918;4.510;2022-12-10T02:44:56;42.57;;;15.27;;
15526;SDS011;7865;50.918;4.510;2022-12-10T02:49:59;42.03;;;15.37;;
15526;SDS011;7865;50.918;4.510;2022-12-10T02:55:03;42.63;;;16.17;;
15526;SDS011;7865;50.918;4.510;2022-12-10T03:00:16;42.67;;;16.00;;
15526;SDS011;7865;50.918;4.510;2022-12-10T03:05:57;47.23;;;16.47;;
15526;SDS011;7865;50.918;4.510;2022-12-10T03:11:13;42.73;;;16.53;;
15526;SDS011;7865;50.918;4.510;2022-12-10T03:16:17;47.83;;;15.50;;
15526;SDS011;7865;50.918;4.510;2022-12-10T03:21:20;40.50;;;15.93;;
15526;SDS011;7865;50.918;4.510;2022-12-10T03:26:26;52.97;;;17.60;;
15526;SDS011;7865;50.918;4.510;2022-12-10T03:31:29;56.93;;;18.73;;
15526;SDS011;7865;50.918;4.510;2022-12-10T03:36:32;51.63;;;18.70;;
15526;SDS011;7865;50.918;4.510;2022-12-10T03:41:35;53.97;;;16.77;;
15526;SDS011;7865;50.918;4.510;2022-12-10T03:46:37;47.37;;;17.37;;
15526;SDS011;7865;50.918;4.510;2022-12-10T03:51:39;51.40;;;18.07;;
15526;SDS011;7865;50.918;4.510;2022-12-10T03:56:40;62.50;;;19.90;;
15526;SDS011;7865;50.918;4.510;2022-12-10T04:01:42;59.37;;;21.07;;
15526;SDS011;7865;50.918;4.510;2022-12-10T04:06:44;61.47;;;20.10;;
15526;SDS011;7865;50.918;4.510;2022-12-10T04:11:46;57.13;;;20.87;;
15526;SDS011;7865;50.918;4.510;2022-12-10T04:16:48;61.53;;;21.17;;
15526;SDS011;7865;50.918;4.510;2022-12-10T04:21:51;57.43;;;19.77;;
15526;SDS011;7865;50.918;4.510;2022-12-10T04:27:16;61.73;;;22.80;;
15526;SDS011;7865;50.918;4.510;2022-12-10T04:32:22;50.10;;;19.93;;
15526;SDS011;7865;50.918;4.510;2022-12-10T04:37:25;63.80;;;22.73;;
15526;SDS011;7865;50.918;4.510;2022-12-10T04:42:28;60.20;;;22.70;;
15526;SDS011;7865;50.918;4.510;2022-12-10T04:47:30;66.83;;;22.90;;
15526;SDS011;7865;50.918;4.510;2022-12-10T04:52:32;61.80;;;21.97;;
15526;SDS011;7865;50.918;4.510;2022-12-10T04:57:34;63.97;;;21.97;;
15526;SDS011;7865;50.918;4.510;2022-12-10T05:02:36;67.90;;;22.70;;
15526;SDS011;7865;50.918;4.510;2022-12-10T05:07:37;58.73;;;21.73;;
15526;SDS011;7865;50.918;4.510;2022-12-10T05:12:39;70.40;;;22.23;;
15526;SDS011;7865;50.918;4.510;2022-12-10T05:17:41;57.70;;;22.20;;
15526;SDS011;7865;50.918;4.510;2022-12-10T05:22:43;64.13;;;22.57;;
15526;SDS011;7865;50.918;4.510;2022-12-10T05:28:03;64.73;;;22.47;;
15526;SDS011;7865;50.918;4.510;2022-12-10T05:33:05;56.03;;;21.03;;
15526;SDS011;7865;50.918;4.510;2022-12-10T05:38:07;70.97;;;22.03;;
15526;SDS011;7865;50.918;4.510;2022-12-10T05:43:09;73.67;;;22.40;;
15526;SDS011;7865;50.918;4.510;2022-12-10T05:48:13;71.47;;;22.43;;
15526;SDS011;7865;50.918;4.510;2022-12-10T05:53:17;69.47;;;22.10;;
15526;SDS011;7865;50.918;4.510;2022-12-10T05:58:19;67.97;;;20.50;;
15526;SDS011;7865;50.918;4.510;2022-12-10T06:03:21;53.10;;;16.70;;
15526;SDS011;7865;50.918;4.510;2022-12-10T06:08:23;70.13;;;22.67;;
15526;SDS011;7865;50.918;4.510;2022-12-10T06:13:25;80.70;;;21.33;;
15526;SDS011;7865;50.918;4.510;2022-12-10T06:18:27;62.97;;;20.87;;
15526;SDS011;7865;50.918;4.510;2022-12-10T06:23:29;54.53;;;18.40;;
15526;SDS011;7865;50.918;4.510;2022-12-10T06:28:30;57.80;;;16.83;;
15526;SDS011;7865;50.918;4.510;2022-12-10T06:33:32;72.60;;;19.90;;
15526;SDS011;7865;50.918;4.510;2022-12-10T06:38:35;65.53;;;19.10;;
15526;SDS011;7865;50.918;4.510;2022-12-10T06:43:37;72.80;;;20.80;;
15526;SDS011;7865;50.918;4.510;2022-12-10T06:48:40;73.00;;;21.63;;
15526;SDS011;7865;50.918;4.510;2022-12-10T06:53:43;64.40;;;20.70;;
15526;SDS011;7865;50.918;4.510;2022-12-10T06:58:46;64.87;;;20.27;;
15526;SDS011;7865;50.918;4.510;2022-12-10T07:03:49;62.73;;;19.57;;
15526;SDS011;7865;50.918;4.510;2022-12-10T07:08:52;68.37;;;20.23;;
15526;SDS011;7865;50.918;4.510;2022-12-10T07:13:54;65.30;;;19.60;;
15526;SDS011;7865;50.918;4.510;2022-12-10T07:18:56;60.83;;;17.87;;
15526;SDS011;7865;50.918;4.510;2022-12-10T07:24:03;62.20;;;16.60;;
15526;SDS011;7865;50.918;4.510;2022-12-10T07:29:12;45.17;;;14.50;;
15526;SDS011;7865;50.918;4.510;2022-12-10T07:34:18;52.30;;;15.70;;
15526;SDS011;7865;50.918;4.510;2022-12-10T07:39:20;43.17;;;14.17;;
15526;SDS011;7865;50.918;4.510;2022-12-10T07:44:23;45.03;;;15.20;;
15526;SDS011;7865;50.918;4.510;2022-12-10T07:49:28;46.37;;;15.03;;
15526;SDS011;7865;50.918;4.510;2022-12-10T07:54:30;66.60;;;18.20;;
15526;SDS011;7865;50.918;4.510;2022-12-10T07:59:32;56.53;;;16.17;;
15526;SDS011;7865;50.918;4.510;2022-12-10T08:04:34;48.90;;;14.47;;
15526;SDS011;7865;50.918;4.510;2022-12-10T08:09:36;61.27;;;18.17;;
15526;SDS011;7865;50.918;4.510;2022-12-10T08:14:38;46.27;;;15.47;;
15526;SDS011;7865;50.918;4.510;2022-12-10T08:19:40;52.73;;;16.53;;
15526;SDS011;7865;50.918;4.510;2022-12-10T08:24:41;49.50;;;15.90;;
15526;SDS011;7865;50.918;4.510;2022-12-10T08:29:43;58.33;;;18.53;;
15526;SDS011;7865;50.918;4.510;2022-12-10T08:34:45;53.43;;;16.37;;
15526;SDS011;7865;50.918;4.510;2022-12-10T08:39:47;54.80;;;17.40;;
15526;SDS011;7865;50.918;4.510;2022-12-10T08:44:49;51.57;;;17.93;;
15526;SDS011;7865;50.918;4.510;2022-12-10T08:49:52;51.00;;;17.97;;
15526;SDS011;7865;50.918;4.510;2022-12-10T08:54:54;56.23;;;17.90;;
15526;SDS011;7865;50.918;4.510;2022-12-10T08:59:56;61.20;;;19.13;;
15526;SDS011;7865;50.918;4.510;2022-12-10T09:04:57;53.93;;;17.53;;
15526;SDS011;7865;50.918;4.510;2022-12-10T09:09:59;62.50;;;19.67;;
15526;SDS011;7865;50.918;4.510;2022-12-10T09:15:01;49.37;;;17.37;;
15526;SDS011;7865;50.918;4.510;2022-12-10T09:20:04;50.23;;;15.97;;
15526;SDS011;7865;50.918;4.510;2022-12-10T09:25:07;50.20;;;15.07;;
15526;SDS011;7865;50.918;4.510;2022-12-10T09:30:12;45.20;;;15.90;;
15526;SDS011;7865;50.918;4.510;2022-12-10T09:35:15;41.47;;;14.00;;
15526;SDS011;7865;50.918;4.510;2022-12-10T09:40:18;52.60;;;15.90;;
15526;SDS011;7865;50.918;4.510;2022-12-10T09:45:39;48.47;;;15.60;;
15526;SDS011;7865;50.918;4.510;2022-12-10T09:56:22;45.63;;;16.03;;
15526;SDS011;7865;50.918;4.510;2022-12-10T10:01:27;56.23;;;17.87;;
15526;SDS011;7865;50.918;4.510;2022-12-10T10:06:32;46.03;;;15.90;;
15526;SDS011;7865;50.918;4.510;2022-12-10T10:11:34;58.40;;;18.00;;
15526;SDS011;7865;50.918;4.510;2022-12-10T10:16:47;50.13;;;16.17;;
15526;SDS011;7865;50.918;4.510;2022-12-10T10:21:54;42.73;;;14.53;;
15526;SDS011;7865;50.918;4.510;2022-12-10T10:26:57;54.17;;;16.90;;
15526;SDS011;7865;50.918;4.510;2022-12-10T10:32:10;49.37;;;16.30;;
15526;SDS011;7865;50.918;4.510;2022-12-10T10:37:23;49.40;;;15.47;;
15526;SDS011;7865;50.918;4.510;2022-12-10T10:42:35;49.60;;;17.43;;
15526;SDS011;7865;50.918;4.510;2022-12-10T10:47:39;50.97;;;16.13;;
15526;SDS011;7865;50.918;4.510;2022-12-10T10:52:41;62.90;;;21.03;;
15526;SDS011;7865;50.918;4.510;2022-12-10T10:57:43;51.80;;;17.43;;
15526;SDS011;7865;50.918;4.510;2022-12-10T11:02:45;60.40;;;19.93;;
15526;SDS011;7865;50.918;4.510;2022-12-10T11:07:47;59.37;;;18.83;;
15526;SDS011;7865;50.918;4.510;2022-12-10T11:18:22;48.77;;;17.23;;
15526;SDS011;7865;50.918;4.510;2022-12-10T11:23:27;58.07;;;19.23;;
15526;SDS011;7865;50.918;4.510;2022-12-10T11:44:31;53.27;;;18.63;;
15526;SDS011;7865;50.918;4.510;2022-12-10T11:49:48;53.43;;;18.93;;
15526;SDS011;7865;50.918;4.510;2022-12-10T12:00:22;49.43;;;16.90;;
15526;SDS011;7865;50.918;4.510;2022-12-10T12:05:29;55.53;;;18.13;;
15526;SDS011;7865;50.918;4.510;2022-12-10T12:10:58;52.30;;;18.00;;
15526;SDS011;7865;50.918;4.510;2022-12-10T12:16:30;47.60;;;17.03;;
15526;SDS011;7865;50.918;4.510;2022-12-10T12:21:36;57.13;;;18.30;;
15526;SDS011;7865;50.918;4.510;2022-12-10T12:27:24;53.83;;;18.83;;
15526;SDS011;7865;50.918;4.510;2022-12-10T12:32:19;59.90;;;17.23;;
15526;SDS011;7865;50.918;4.510;2022-12-10T12:37:34;55.13;;;17.97;;
15526;SDS011;7865;50.918;4.510;2022-12-10T12:48:11;50.93;;;17.23;;
15526;SDS011;7865;50.918;4.510;2022-12-10T12:53:16;60.57;;;19.03;;
15526;SDS011;7865;50.918;4.510;2022-12-10T12:58:31;50.10;;;17.73;;
15526;SDS011;7865;50.918;4.510;2022-12-10T13:03:50;50.57;;;17.93;;
15526;SDS011;7865;50.918;4.510;2022-12-10T13:08:57;49.30;;;16.93;;
15526;SDS011;7865;50.918;4.510;2022-12-10T13:24:42;53.40;;;17.43;;
15526;SDS011;7865;50.918;4.510;2022-12-10T13:29:57;49.90;;;15.53;;
15526;SDS011;7865;50.918;4.510;2022-12-10T14:06:45;43.17;;;14.33;;
15526;SDS011;7865;50.918;4.510;2022-12-10T14:11:57;38.00;;;14.03;;
15526;SDS011;7865;50.918;4.510;2022-12-10T14:17:03;37.10;;;13.93;;
15526;SDS011;7865;50.918;4.510;2022-12-10T14:22:10;34.37;;;12.60;;
15526;SDS011;7865;50.918;4.510;2022-12-10T14:27:19;36.13;;;14.03;;
15526;SDS011;7865;50.918;4.510;2022-12-10T14:32:29;37.50;;;13.07;;
15526;SDS011;7865;50.918;4.510;2022-12-10T14:37:36;37.97;;;14.03;;
15526;SDS011;7865;50.918;4.510;2022-12-10T14:42:40;40.47;;;13.43;;
15526;SDS011;7865;50.918;4.510;2022-12-10T14:47:42;45.43;;;14.63;;
15526;SDS011;7865;50.918;4.510;2022-12-10T14:52:52;36.07;;;14.70;;
15526;SDS011;7865;50.918;4.510;2022-12-10T14:57:54;35.97;;;13.17;;
15526;SDS011;7865;50.918;4.510;2022-12-10T15:03:01;39.47;;;14.47;;
15526;SDS011;7865;50.918;4.510;2022-12-10T15:08:15;45.23;;;13.97;;
15526;SDS011;7865;50.918;4.510;2022-12-10T15:13:21;46.40;;;14.50;;
15526;SDS011;7865;50.918;4.510;2022-12-10T15:18:44;32.73;;;12.90;;
15526;SDS011;7865;50.918;4.510;2022-12-10T15:23:46;34.03;;;13.20;;
15526;SDS011;7865;50.918;4.510;2022-12-10T15:28:49;39.60;;;15.00;;
15526;SDS011;7865;50.918;4.510;2022-12-10T15:38:55;41.57;;;12.17;;
15526;SDS011;7865;50.918;4.510;2022-12-10T15:44:02;36.90;;;12.50;;
15526;SDS011;7865;50.918;4.510;2022-12-10T15:49:07;38.50;;;13.67;;
15526;SDS011;7865;50.918;4.510;2022-12-10T15:54:52;37.17;;;12.53;;
15526;SDS011;7865;50.918;4.510;2022-12-10T15:59:34;30.20;;;12.10;;
15526;SDS011;7865;50.918;4.510;2022-12-10T16:04:36;35.73;;;13.43;;
15526;SDS011;7865;50.918;4.510;2022-12-10T16:09:38;42.23;;;13.87;;
15526;SDS011;7865;50.918;4.510;2022-12-10T16:14:48;33.87;;;12.17;;
15526;SDS011;7865;50.918;4.510;2022-12-10T16:20:15;38.33;;;12.53;;
15526;SDS011;7865;50.918;4.510;2022-12-10T16:25:32;34.90;;;12.67;;
15526;SDS011;7865;50.918;4.510;2022-12-10T16:30:37;37.27;;;12.73;;
15526;SDS011;7865;50.918;4.510;2022-12-10T16:35:49;42.63;;;14.03;;
15526;SDS011;7865;50.918;4.510;2022-12-10T16:40:52;35.40;;;13.87;;
15526;SDS011;7865;50.918;4.510;2022-12-10T16:45:54;37.50;;;13.37;;
15526;SDS011;7865;50.918;4.510;2022-12-10T16:50:57;38.30;;;12.37;;
15526;SDS011;7865;50.918;4.510;2022-12-10T16:56:10;37.70;;;14.97;;
15526;SDS011;7865;50.918;4.510;2022-12-10T17:01:25;36.33;;;13.47;;
15526;SDS011;7865;50.918;4.510;2022-12-10T17:06:32;35.57;;;13.17;;
15526;SDS011;7865;50.918;4.510;2022-12-10T17:11:36;37.47;;;15.07;;
15526;SDS011;7865;50.918;4.510;2022-12-10T17:16:47;36.70;;;14.77;;
15526;SDS011;7865;50.918;4.510;2022-12-10T17:21:49;41.57;;;14.77;;
15526;SDS011;7865;50.918;4.510;2022-12-10T17:26:52;32.53;;;14.50;;
15526;SDS011;7865;50.918;4.510;2022-12-10T17:31:57;36.67;;;14.37;;
15526;SDS011;7865;50.918;4.510;2022-12-10T17:37:00;46.10;;;16.27;;
15526;SDS011;7865;50.918;4.510;2022-12-10T17:42:02;39.83;;;16.60;;
15526;SDS011;7865;50.918;4.510;2022-12-10T17:47:37;36.43;;;13.63;;
15526;SDS011;7865;50.918;4.510;2022-12-10T17:52:33;33.53;;;14.83;;
15526;SDS011;7865;50.918;4.510;2022-12-10T17:57:35;32.30;;;14.00;;
15526;SDS011;7865;50.918;4.510;2022-12-10T18:02:37;34.63;;;14.43;;
15526;SDS011;7865;50.918;4.510;2022-12-10T18:07:39;37.73;;;13.70;;
15526;SDS011;7865;50.918;4.510;2022-12-10T18:12:41;32.97;;;15.80;;
15526;SDS011;7865;50.918;4.510;2022-12-10T18:17:43;39.13;;;15.30;;
15526;SDS011;7865;50.918;4.510;2022-12-10T18:22:46;39.27;;;15.93;;
15526;SDS011;7865;50.918;4.510;2022-12-10T18:27:49;33.00;;;14.50;;
15526;SDS011;7865;50.918;4.510;2022-12-10T18:32:51;36.30;;;13.97;;
15526;SDS011;7865;50.918;4.510;2022-12-10T18:37:53;30.90;;;16.03;;
15526;SDS011;7865;50.918;4.510;2022-12-10T18:42:55;41.80;;;15.67;;
15526;SDS011;7865;50.918;4.510;2022-12-10T18:47:57;34.57;;;15.73;;
15526;SDS011;7865;50.918;4.510;2022-12-10T18:52:59;42.10;;;18.37;;
15526;SDS011;7865;50.918;4.510;2022-12-10T18:58:01;36.03;;;16.30;;
15526;SDS011;7865;50.918;4.510;2022-12-10T19:03:07;41.93;;;15.77;;
15526;SDS011;7865;50.918;4.510;2022-12-10T19:08:10;32.93;;;14.17;;
15526;SDS011;7865;50.918;4.510;2022-12-10T19:13:14;29.83;;;13.03;;
15526;SDS011;7865;50.918;4.510;2022-12-10T19:18:16;39.50;;;14.53;;
15526;SDS011;7865;50.918;4.510;2022-12-10T19:23:18;34.37;;;14.43;;
15526;SDS011;7865;50.918;4.510;2022-12-10T19:28:20;30.00;;;12.87;;
15526;SDS011;7865;50.918;4.510;2022-12-10T19:33:22;29.87;;;13.53;;
15526;SDS011;7865;50.918;4.510;2022-12-10T19:38:24;37.43;;;15.30;;
15526;SDS011;7865;50.918;4.510;2022-12-10T19:43:26;31.20;;;14.90;;
15526;SDS011;7865;50.918;4.510;2022-12-10T19:48:28;35.17;;;15.77;;
15526;SDS011;7865;50.918;4.510;2022-12-10T19:53:35;32.90;;;14.00;;
15526;SDS011;7865;50.918;4.510;2022-12-10T19:58:39;31.17;;;14.47;;
15526;SDS011;7865;50.918;4.510;2022-12-10T20:03:41;24.67;;;12.30;;
15526;SDS011;7865;50.918;4.510;2022-12-10T20:08:43;27.80;;;12.20;;
15526;SDS011;7865;50.918;4.510;2022-12-10T20:13:46;28.13;;;12.47;;
15526;SDS011;7865;50.918;4.510;2022-12-10T20:18:48;33.90;;;12.80;;
15526;SDS011;7865;50.918;4.510;2022-12-10T20:23:51;30.53;;;14.20;;
15526;SDS011;7865;50.918;4.510;2022-12-10T20:28:53;31.20;;;11.43;;
15526;SDS011;7865;50.918;4.510;2022-12-10T20:33:55;26.40;;;12.00;;
15526;SDS011;7865;50.918;4.510;2022-12-10T20:38:57;30.90;;;14.13;;
15526;SDS011;7865;50.918;4.510;2022-12-10T20:43:59;26.80;;;12.53;;
15526;SDS011;7865;50.918;4.510;2022-12-10T20:49:01;31.13;;;14.47;;
15526;SDS011;7865;50.918;4.510;2022-12-10T20:54:03;25.90;;;10.97;;
15526;SDS011;7865;50.918;4.510;2022-12-10T20:59:05;27.10;;;13.60;;
15526;SDS011;7865;50.918;4.510;2022-12-10T21:04:08;27.20;;;12.10;;
15526;SDS011;7865;50.918;4.510;2022-12-10T21:09:10;27.37;;;12.50;;
15526;SDS011;7865;50.918;4.510;2022-12-10T21:14:13;18.47;;;8.00;;
15526;SDS011;7865;50.918;4.510;2022-12-10T21:19:35;23.37;;;10.93;;
15526;SDS011;7865;50.918;4.510;2022-12-10T21:24:37;28.10;;;11.10;;
15526;SDS011;7865;50.918;4.510;2022-12-10T21:29:39;25.17;;;11.10;;
15526;SDS011;7865;50.918;4.510;2022-12-10T21:34:41;29.53;;;13.37;;
15526;SDS011;7865;50.918;4.510;2022-12-10T21:39:43;29.17;;;11.73;;
15526;SDS011;7865;50.918;4.510;2022-12-10T21:44:45;31.13;;;12.43;;
15526;SDS011;7865;50.918;4.510;2022-12-10T21:49:46;23.93;;;11.00;;
15526;SDS011;7865;50.918;4.510;2022-12-10T21:54:48;26.37;;;11.17;;
15526;SDS011;7865;50.918;4.510;2022-12-10T21:59:50;24.90;;;10.60;;
15526;SDS011;7865;50.918;4.510;2022-12-10T22:04:52;28.63;;;11.57;;
15526;SDS011;7865;50.918;4.510;2022-12-10T22:09:54;31.03;;;11.57;;
15526;SDS011;7865;50.918;4.510;2022-12-10T22:14:56;30.50;;;12.90;;
15526;SDS011;7865;50.918;4.510;2022-12-10T22:19:59;22.30;;;10.03;;
15526;SDS011;7865;50.918;4.510;2022-12-10T22:25:01;23.10;;;10.87;;
15526;SDS011;7865;50.918;4.510;2022-12-10T22:30:04;26.50;;;11.57;;
15526;SDS011;7865;50.918;4.510;2022-12-10T22:35:06;29.30;;;12.13;;
15526;SDS011;7865;50.918;4.510;2022-12-10T22:40:10;20.33;;;9.70;;
15526;SDS011;7865;50.918;4.510;2022-12-10T22:45:13;22.90;;;9.93;;
15526;SDS011;7865;50.918;4.510;2022-12-10T22:50:15;23.27;;;10.93;;
15526;SDS011;7865;50.918;4.510;2022-12-10T22:55:17;28.30;;;11.10;;
15526;SDS011;7865;50.918;4.510;2022-12-10T23:00:19;24.87;;;11.63;;
15526;SDS011;7865;50.918;4.510;2022-12-10T23:05:21;21.83;;;10.73;;
15526;SDS011;7865;50.918;4.510;2022-12-10T23:10:23;24.73;;;11.17;;
15526;SDS011;7865;50.918;4.510;2022-12-10T23:15:26;25.00;;;11.47;;
15526;SDS011;7865;50.918;4.510;2022-12-10T23:20:28;25.20;;;11.50;;
15526;SDS011;7865;50.918;4.510;2022-12-10T23:25:32;27.30;;;12.03;;
15526;SDS011;7865;50.918;4.510;2022-12-10T23:30:34;26.63;;;10.87;;
15526;SDS011;7865;50.918;4.510;2022-12-10T23:35:39;24.67;;;10.63;;
15526;SDS011;7865;50.918;4.510;2022-12-10T23:40:42;23.63;;;10.47;;
15526;SDS011;7865;50.918;4.510;2022-12-10T23:45:45;27.97;;;12.23;;
15526;SDS011;7865;50.918;4.510;2022-12-10T23:50:47;23.13;;;10.43;;
15526;SDS011;7865;50.918;4.510;2022-12-10T23:55:49;25.00;;;10.27;;
